Time;durP1;ratioP1;P1;durP2;ratioP2;P2;SDS_P1;SDS_P2;PMS_P1;PMS_P2;Temp;Humidity;BMP_temperature;BMP_pressure;BME280_temperature;BME280_humidity;BME280_pressure;Samples;Min_cycle;Max_cycle;Signal;HPM_P1;HPM_P2
2022/12/16 00:00:14;;;;;;;;;;;;;;;;;;1027581;28;20412;-77
2022/12/16 00:00:45;;;;;;;;;;;;;;;;;;1028635;28;19914;-77
2022/12/16 00:01:16;;;;;;;;;;;;;;;;;;1035852;28;19941;-75
2022/12/16 00:01:47;;;;;;;;;;;;;;;;;;1040235;28;20031;-77
2022/12/16 00:02:18;;;;;;;;;;;;;;;;;;1040199;28;19960;-75
2022/12/16 00:02:49;;;;;;;;;;;;;;;;;;1039440;28;19909;-76
2022/12/16 00:03:19;;;;;;;;;;;;;;;;;;1035429;28;19986;-75
2022/12/16 00:03:50;;;;;;;;;;;;;;;;;;1031821;28;19909;-76
2022/12/16 00:04:21;;;;;;;;;;;;;;;;;;1031476;28;19910;-77
2022/12/16 00:04:52;;;;;;;;;;;;;;;;;;1032380;28;20456;-75
2022/12/16 00:05:23;;;;;;;;;;;;;;;;;;1031908;28;19937;-76
2022/12/16 00:05:57;;;;;;;;;;;;;;;;;;1035451;28;20439;-76
2022/12/16 00:06:28;;;;;;;;;;;;;;;;;;1031835;28;19910;-75
2022/12/16 00:06:58;;;;;;;;;;;;;;;;;;1035775;28;20000;-76
2022/12/16 00:07:29;;;;;;;;;;;;;;;;;;1032350;28;19910;-77
2022/12/16 00:08:00;;;;;;;;;;;;;;;;;;1031878;28;19912;-75
2022/12/16 00:08:31;;;;;;;;;;;;;;;;;;1031939;28;20502;-78
2022/12/16 00:09:02;;;;;;;;;;;;;;;;;;1031888;28;19917;-77
2022/12/16 00:09:33;;;;;;;;;;;;;;;;;;1031540;28;20500;-78
2022/12/16 00:10:04;;;;;;;;;;;;;;;;;;1032387;28;20496;-78
2022/12/16 00:10:51;;;;;;;;;;;;;;;;;;1032212;28;19920;-77
2022/12/16 00:11:22;;;;;;;;;;;;;;;;;;1038385;28;19917;-77
2022/12/16 00:11:53;;;;;;;;;;;;;;;;;;1035321;28;19906;-77
2022/12/16 00:12:24;;;;;;;;;;;;;;;;;;1035720;28;19968;-77
2022/12/16 00:12:55;;;;;;;;;;;;;;;;;;1036423;28;19911;-76
2022/12/16 00:13:26;;;;;;;;;;;;;;;;;;1035885;28;20372;-77
2022/12/16 00:13:57;;;;;;;;;;;;;;;;;;1039591;28;20003;-77
2022/12/16 00:14:28;;;;;;;;;;;;;;;;;;1039027;28;19909;-76
2022/12/16 00:14:58;;;;;;;;;;;;;;;;;;1037748;28;19917;-76
2022/12/16 00:15:29;;;;;;;;;;;;;;;;;;1040967;28;20280;-78
2022/12/16 00:16:00;;;;;;;;;;;;;;;;;;1039891;28;19905;-78
2022/12/16 00:16:31;;;;;;;;;;;;;;;;;;1035698;28;19917;-77
2022/12/16 00:17:02;;;;;;;;;;;;;;;;;;1031301;28;19910;-77
2022/12/16 00:17:33;;;;;;;;;;;;;;;;;;1031710;28;19910;-77
2022/12/16 00:18:05;;;;;;;;;;;;;;;;;;1035482;28;19914;-76
2022/12/16 00:18:36;;;;;;;;;;;;;;;;;;1036002;28;19941;-76
2022/12/16 00:19:07;;;;;;;;;;;;;;;;;;1035023;28;19910;-76
2022/12/16 00:19:38;;;;;;;;;;;;;;;;;;1037768;28;19909;-76
2022/12/16 00:20:09;;;;;;;;;;;;;;;;;;1039548;28;20378;-78
2022/12/16 00:20:40;;;;;;;;;;;;;;;;;;1036779;28;20072;-77
2022/12/16 00:21:11;;;;;;;;;;;;;;;;;;1035203;28;19909;-77
2022/12/16 00:21:42;;;;;;;;;;;;;;;;;;1035968;28;19909;-77
2022/12/16 00:22:13;;;;;;;;;;;;;;;;;;1035604;28;19909;-77
2022/12/16 00:22:43;;;;;;;;;;;;;;;;;;1035892;28;19913;-77
2022/12/16 00:23:14;;;;;;;;;;;;;;;;;;1032416;28;19992;-76
2022/12/16 00:23:45;;;;;;;;;;;;;;;;;;1031709;28;19913;-76
2022/12/16 00:24:16;;;;;;;;;;;;;;;;;;1031137;28;19913;-76
2022/12/16 00:24:47;;;;;;;;;;;;;;;;;;1033471;28;20138;-76
2022/12/16 00:25:18;;;;;;;;;;;;;;;;;;1031564;28;19910;-76
2022/12/16 00:25:49;;;;;;;;;;;;;;;;;;1036257;28;19921;-76
2022/12/16 00:26:20;;;;;;;;;;;;;;;;;;1036014;28;19913;-76
2022/12/16 00:26:51;;;;;;;;;;;;;;;;;;1035494;28;19913;-78
2022/12/16 00:27:22;;;;;;;;;;;;;;;;;;1035955;28;19925;-78
2022/12/16 00:27:52;;;;;;;;;;;;;;;;;;1035613;28;19910;-75
2022/12/16 00:28:23;;;;;;;;;;;;;;;;;;1036542;28;19909;-76
2022/12/16 00:28:54;;;;;;;;;;;;;;;;;;1031067;28;20023;-78
2022/12/16 00:29:25;;;;;;;;;;;;;;;;;;1031657;28;19913;-77
2022/12/16 00:29:56;;;;;;;;;;;;;;;;;;1031744;28;20009;-76
2022/12/16 00:30:27;;;;;;;;;;;;;;;;;;1036085;28;19921;-76
2022/12/16 00:30:58;;;;;;;;;;;;;;;;;;1036361;28;19914;-76
2022/12/16 00:31:29;;;;;;;;;;;;;;;;;;1031958;28;20480;-76
2022/12/16 00:32:01;;;;;;;;;;;;;;;;;;1031428;28;20593;-76
2022/12/16 00:32:32;;;;;;;;;;;;;;;;;;1032224;28;19968;-76
2022/12/16 00:33:03;;;;;;;;;;;;;;;;;;1031758;28;19936;-78
2022/12/16 00:33:34;;;;;;;;;;;;;;;;;;1032504;28;20385;-77
2022/12/16 00:34:05;;;;;;;;;;;;;;;;;;1031076;28;19913;-76
2022/12/16 00:34:37;;;;;;;;;;;;;;;;;;1031816;28;19953;-78
2022/12/16 00:35:08;;;;;;;;;;;;;;;;;;1035297;28;20015;-75
2022/12/16 00:35:38;;;;;;;;;;;;;;;;;;1039891;28;19913;-76
2022/12/16 00:36:09;;;;;;;;;;;;;;;;;;1040603;28;19970;-77
2022/12/16 00:36:40;;;;;;;;;;;;;;;;;;1035762;28;19914;-78
2022/12/16 00:37:12;;;;;;;;;;;;;;;;;;1035368;28;19943;-77
2022/12/16 00:37:43;;;;;;;;;;;;;;;;;;1031725;28;20013;-77
2022/12/16 00:38:13;;;;;;;;;;;;;;;;;;1030997;28;19913;-76
2022/12/16 00:38:44;;;;;;;;;;;;;;;;;;1032732;28;19914;-77
2022/12/16 00:39:15;;;;;;;;;;;;;;;;;;1031242;28;19914;-77
2022/12/16 00:39:46;;;;;;;;;;;;;;;;;;1031782;28;20059;-76
2022/12/16 00:40:17;;;;;;;;;;;;;;;;;;1035167;28;19913;-76
2022/12/16 00:40:48;;;;;;;;;;;;;;;;;;1031876;28;19913;-77
2022/12/16 00:41:19;;;;;;;;;;;;;;;;;;1031903;28;19914;-76
2022/12/16 00:41:50;;;;;;;;;;;;;;;;;;1031688;28;19913;-77
2022/12/16 00:42:21;;;;;;;;;;;;;;;;;;1035376;28;19920;-79
2022/12/16 00:42:52;;;;;;;;;;;;;;;;;;1035754;28;19920;-76
2022/12/16 00:43:22;;;;;;;;;;;;;;;;;;1031151;28;19914;-77
2022/12/16 00:43:53;;;;;;;;;;;;;;;;;;1032805;28;19924;-76
2022/12/16 00:44:24;;;;;;;;;;;;;;;;;;1030849;28;20387;-77
2022/12/16 00:44:55;;;;;;;;;;;;;;;;;;1027707;28;19910;-78
2022/12/16 00:45:26;;;;;;;;;;;;;;;;;;1035658;28;19916;-77
2022/12/16 00:45:57;;;;;;;;;;;;;;;;;;1039769;28;19956;-76
2022/12/16 00:46:28;;;;;;;;;;;;;;;;;;1036501;28;19906;-76
2022/12/16 00:46:59;;;;;;;;;;;;;;;;;;1035243;28;19909;-76
2022/12/16 00:47:29;;;;;;;;;;;;;;;;;;1035751;28;19925;-78
2022/12/16 00:48:00;;;;;;;;;;;;;;;;;;1035799;28;20008;-76
2022/12/16 00:48:31;;;;;;;;;;;;;;;;;;1031461;28;19955;-76
2022/12/16 00:49:02;;;;;;;;;;;;;;;;;;1032543;28;19933;-76
2022/12/16 00:49:33;;;;;;;;;;;;;;;;;;1031338;28;19910;-76
2022/12/16 00:50:04;;;;;;;;;;;;;;;;;;1031615;28;19913;-75
2022/12/16 00:50:35;;;;;;;;;;;;;;;;;;1031681;28;20001;-77
2022/12/16 00:51:05;;;;;;;;;;;;;;;;;;1035194;28;19963;-75
2022/12/16 00:51:36;;;;;;;;;;;;;;;;;;1032675;28;19945;-76
2022/12/16 00:52:07;;;;;;;;;;;;;;;;;;1031265;28;19910;-76
2022/12/16 00:52:38;;;;;;;;;;;;;;;;;;1027385;28;20269;-77
2022/12/16 00:53:09;;;;;;;;;;;;;;;;;;1027051;28;20690;-77
2022/12/16 00:53:40;;;;;;;;;;;;;;;;;;1027709;28;20413;-78
2022/12/16 00:54:11;;;;;;;;;;;;;;;;;;1031930;28;19910;-78
2022/12/16 00:54:42;;;;;;;;;;;;;;;;;;1035544;28;20390;-77
2022/12/16 00:55:12;;;;;;;;;;;;;;;;;;1034903;28;19910;-77
2022/12/16 00:55:43;;;;;;;;;;;;;;;;;;1035511;28;20157;-77
2022/12/16 00:56:14;;;;;;;;;;;;;;;;;;1031236;28;19960;-76
2022/12/16 00:56:45;;;;;;;;;;;;;;;;;;1031740;28;19917;-79
2022/12/16 00:57:16;;;;;;;;;;;;;;;;;;1035289;28;19910;-77
2022/12/16 00:57:49;;;;;;;;;;;;;;;;;;1035508;28;19910;-77
2022/12/16 00:58:20;;;;;;;;;;;;;;;;;;1038815;28;19909;-77
2022/12/16 00:58:51;;;;;;;;;;;;;;;;;;1035461;28;19973;-77
2022/12/16 00:59:22;;;;;;;;;;;;;;;;;;1031495;28;20020;-78
2022/12/16 00:59:53;;;;;;;;;;;;;;;;;;1031806;28;20324;-76
2022/12/16 01:00:24;;;;;;;;;;;;;;;;;;1031009;28;19953;-77
2022/12/16 01:00:55;;;;;;;;;;;;;;;;;;1033443;28;19910;-77
2022/12/16 01:01:25;;;;;;;;;;;;;;;;;;1039504;28;19997;-76
2022/12/16 01:01:56;;;;;;;;;;;;;;;;;;1035199;28;20451;-77
2022/12/16 01:02:27;;;;;;;;;;;;;;;;;;1035479;28;19917;-77
2022/12/16 01:02:58;;;;;;;;;;;;;;;;;;1035201;28;20008;-77
2022/12/16 01:03:29;;;;;;;;;;;;;;;;;;1035374;28;19917;-77
2022/12/16 01:04:00;;;;;;;;;;;;;;;;;;1039381;28;20450;-77
2022/12/16 01:04:31;;;;;;;;;;;;;;;;;;1035815;28;19917;-78
2022/12/16 01:05:02;;;;;;;;;;;;;;;;;;1036138;28;19921;-78
2022/12/16 01:05:32;;;;;;;;;;;;;;;;;;1035331;28;20291;-77
2022/12/16 01:06:03;;;;;;;;;;;;;;;;;;1033077;28;19910;-77
2022/12/16 01:06:34;;;;;;;;;;;;;;;;;;1030781;28;20556;-76
2022/12/16 01:07:05;;;;;;;;;;;;;;;;;;1031528;28;19932;-77
2022/12/16 01:07:36;;;;;;;;;;;;;;;;;;1035851;28;19910;-76
2022/12/16 01:08:07;;;;;;;;;;;;;;;;;;1035807;28;19914;-77
2022/12/16 01:08:38;;;;;;;;;;;;;;;;;;1035051;28;19920;-77
2022/12/16 01:09:08;;;;;;;;;;;;;;;;;;1035542;28;19936;-76
2022/12/16 01:09:39;;;;;;;;;;;;;;;;;;1035536;28;19940;-77
2022/12/16 01:10:10;;;;;;;;;;;;;;;;;;1032323;28;20320;-77
2022/12/16 01:10:41;;;;;;;;;;;;;;;;;;1031468;28;19920;-77
2022/12/16 01:11:12;;;;;;;;;;;;;;;;;;1031454;28;20164;-77
2022/12/16 01:11:43;;;;;;;;;;;;;;;;;;1031881;28;19925;-77
2022/12/16 01:12:14;;;;;;;;;;;;;;;;;;1035739;28;19913;-77
2022/12/16 01:12:44;;;;;;;;;;;;;;;;;;1035020;28;20004;-78
2022/12/16 01:13:15;;;;;;;;;;;;;;;;;;1031177;28;20444;-77
2022/12/16 01:13:46;;;;;;;;;;;;;;;;;;1031045;28;19914;-77
2022/12/16 01:14:18;;;;;;;;;;;;;;;;;;1031420;28;20664;-76
2022/12/16 01:14:49;;;;;;;;;;;;;;;;;;1027309;28;19930;-78
2022/12/16 01:15:20;;;;;;;;;;;;;;;;;;1031743;28;19930;-77
2022/12/16 01:15:50;;;;;;;;;;;;;;;;;;1027318;28;19929;-78
2022/12/16 01:16:21;;;;;;;;;;;;;;;;;;1034193;28;19913;-78
2022/12/16 01:16:52;;;;;;;;;;;;;;;;;;1035789;28;19910;-77
2022/12/16 01:17:24;;;;;;;;;;;;;;;;;;1039869;28;19999;-76
2022/12/16 01:17:55;;;;;;;;;;;;;;;;;;1040468;28;19909;-75
2022/12/16 01:18:26;;;;;;;;;;;;;;;;;;1035330;28;19910;-77
2022/12/16 01:18:57;;;;;;;;;;;;;;;;;;1035168;28;20004;-78
2022/12/16 01:19:28;;;;;;;;;;;;;;;;;;1031213;28;19921;-78
2022/12/16 01:19:59;;;;;;;;;;;;;;;;;;1031417;28;19917;-78
2022/12/16 01:20:30;;;;;;;;;;;;;;;;;;1032058;28;19914;-77
2022/12/16 01:21:02;;;;;;;;;;;;;;;;;;1027028;28;19972;-76
2022/12/16 01:21:33;;;;;;;;;;;;;;;;;;1031144;28;19916;-77
2022/12/16 01:22:06;;;;;;;;;;;;;;;;;;1027468;28;19914;-77
2022/12/16 01:22:37;;;;;;;;;;;;;;;;;;1027781;28;19910;-77
2022/12/16 01:23:08;;;;;;;;;;;;;;;;;;1028082;28;19932;-78
2022/12/16 01:23:39;;;;;;;;;;;;;;;;;;1027820;28;19961;-76
2022/12/16 01:24:11;;;;;;;;;;;;;;;;;;1027286;28;19911;-76
2022/12/16 01:24:42;;;;;;;;;;;;;;;;;;1027478;28;19960;-76
2022/12/16 01:25:13;;;;;;;;;;;;;;;;;;1029302;28;20008;-78
2022/12/16 01:25:43;;;;;;;;;;;;;;;;;;1028398;28;19969;-76
2022/12/16 01:26:15;;;;;;;;;;;;;;;;;;1031622;28;19910;-77
2022/12/16 01:26:46;;;;;;;;;;;;;;;;;;1039307;28;19909;-76
2022/12/16 01:27:16;;;;;;;;;;;;;;;;;;1035199;28;19909;-78
2022/12/16 01:27:49;;;;;;;;;;;;;;;;;;1031316;28;20001;-77
2022/12/16 01:28:19;;;;;;;;;;;;;;;;;;1032104;28;19906;-75
2022/12/16 01:28:50;;;;;;;;;;;;;;;;;;1031566;28;20009;-76
2022/12/16 01:29:21;;;;;;;;;;;;;;;;;;1035995;28;20532;-76
2022/12/16 01:29:52;;;;;;;;;;;;;;;;;;1039685;28;19909;-77
2022/12/16 01:30:23;;;;;;;;;;;;;;;;;;1035490;28;19956;-77
2022/12/16 01:30:54;;;;;;;;;;;;;;;;;;1036331;28;19913;-76
2022/12/16 01:31:25;;;;;;;;;;;;;;;;;;1035610;28;19959;-75
2022/12/16 01:31:56;;;;;;;;;;;;;;;;;;1035589;28;19972;-76
2022/12/16 01:32:27;;;;;;;;;;;;;;;;;;1040309;28;20280;-76
2022/12/16 01:32:58;;;;;;;;;;;;;;;;;;1039780;28;19909;-76
2022/12/16 01:33:28;;;;;;;;;;;;;;;;;;1036344;28;20056;-78
2022/12/16 01:33:59;;;;;;;;;;;;;;;;;;1035128;28;19916;-78
2022/12/16 01:34:30;;;;;;;;;;;;;;;;;;1032268;28;19914;-75
2022/12/16 01:35:01;;;;;;;;;;;;;;;;;;1033572;28;20580;-78
2022/12/16 01:35:32;;;;;;;;;;;;;;;;;;1035682;28;20467;-75
2022/12/16 01:36:03;;;;;;;;;;;;;;;;;;1036555;28;19976;-76
2022/12/16 01:36:34;;;;;;;;;;;;;;;;;;1035572;28;19930;-77
2022/12/16 01:37:05;;;;;;;;;;;;;;;;;;1035207;28;19916;-77
2022/12/16 01:37:36;;;;;;;;;;;;;;;;;;1035706;28;20352;-78
2022/12/16 01:38:07;;;;;;;;;;;;;;;;;;1031167;28;20009;-76
2022/12/16 01:38:37;;;;;;;;;;;;;;;;;;1032544;28;19909;-77
2022/12/16 01:39:08;;;;;;;;;;;;;;;;;;1031026;28;19952;-76
2022/12/16 01:39:39;;;;;;;;;;;;;;;;;;1031930;28;20013;-76
2022/12/16 01:40:10;;;;;;;;;;;;;;;;;;1035307;28;19932;-76
2022/12/16 01:40:41;;;;;;;;;;;;;;;;;;1039814;28;19996;-76
2022/12/16 01:41:14;;;;;;;;;;;;;;;;;;1040508;28;19905;-77
2022/12/16 01:41:45;;;;;;;;;;;;;;;;;;1038023;28;19992;-76
2022/12/16 01:42:16;;;;;;;;;;;;;;;;;;1030985;28;19909;-76
2022/12/16 01:42:46;;;;;;;;;;;;;;;;;;1031680;28;20054;-76
2022/12/16 01:43:17;;;;;;;;;;;;;;;;;;1031802;28;19913;-76
2022/12/16 01:43:48;;;;;;;;;;;;;;;;;;1036740;28;19976;-76
2022/12/16 01:44:19;;;;;;;;;;;;;;;;;;1039578;28;19916;-76
2022/12/16 01:44:50;;;;;;;;;;;;;;;;;;1035679;28;19953;-77
2022/12/16 01:45:21;;;;;;;;;;;;;;;;;;1030957;28;19906;-77
2022/12/16 01:45:52;;;;;;;;;;;;;;;;;;1031496;28;20590;-76
2022/12/16 01:46:22;;;;;;;;;;;;;;;;;;1032089;28;19958;-77
2022/12/16 01:46:53;;;;;;;;;;;;;;;;;;1033430;28;19917;-77
2022/12/16 01:47:24;;;;;;;;;;;;;;;;;;1031257;28;19910;-77
2022/12/16 01:47:55;;;;;;;;;;;;;;;;;;1035680;28;19961;-77
2022/12/16 01:48:26;;;;;;;;;;;;;;;;;;1031371;28;20004;-77
2022/12/16 01:48:57;;;;;;;;;;;;;;;;;;1033059;28;19937;-77
2022/12/16 01:49:28;;;;;;;;;;;;;;;;;;1035448;28;19909;-77
2022/12/16 01:49:59;;;;;;;;;;;;;;;;;;1035986;28;19910;-77
2022/12/16 01:50:30;;;;;;;;;;;;;;;;;;1035337;28;20282;-77
2022/12/16 01:51:01;;;;;;;;;;;;;;;;;;1035789;28;19978;-77
2022/12/16 01:51:32;;;;;;;;;;;;;;;;;;1036579;28;19916;-77
2022/12/16 01:52:03;;;;;;;;;;;;;;;;;;1031318;28;19910;-77
2022/12/16 01:52:34;;;;;;;;;;;;;;;;;;1035274;28;20048;-78
2022/12/16 01:53:05;;;;;;;;;;;;;;;;;;1035333;28;19944;-77
2022/12/16 01:53:36;;;;;;;;;;;;;;;;;;1034552;28;19955;-79
2022/12/16 01:54:07;;;;;;;;;;;;;;;;;;1032681;28;19916;-76
2022/12/16 01:54:38;;;;;;;;;;;;;;;;;;1035380;28;19985;-76
2022/12/16 01:55:09;;;;;;;;;;;;;;;;;;1030901;28;19910;-77
2022/12/16 01:55:40;;;;;;;;;;;;;;;;;;1027509;28;19906;-76
2022/12/16 01:56:11;;;;;;;;;;;;;;;;;;1027087;28;20005;-77
2022/12/16 01:56:42;;;;;;;;;;;;;;;;;;1032587;28;20436;-77
2022/12/16 01:57:12;;;;;;;;;;;;;;;;;;1027399;28;19921;-77
2022/12/16 01:57:43;;;;;;;;;;;;;;;;;;1027321;28;20018;-76
2022/12/16 01:58:14;;;;;;;;;;;;;;;;;;1023252;28;19974;-77
2022/12/16 01:58:45;;;;;;;;;;;;;;;;;;1023898;28;20449;-77
2022/12/16 01:59:16;;;;;;;;;;;;;;;;;;1030855;28;19906;-76
2022/12/16 01:59:47;;;;;;;;;;;;;;;;;;1035836;28;19917;-77
2022/12/16 02:00:18;;;;;;;;;;;;;;;;;;1034826;28;19910;-77
2022/12/16 02:00:49;;;;;;;;;;;;;;;;;;1036550;28;20381;-78
2022/12/16 02:01:20;;;;;;;;;;;;;;;;;;1039781;28;20662;-77
2022/12/16 02:01:51;;;;;;;;;;;;;;;;;;1040869;28;19909;-76
2022/12/16 02:02:22;;;;;;;;;;;;;;;;;;1039415;28;19909;-76
2022/12/16 02:02:53;;;;;;;;;;;;;;;;;;1039579;28;19909;-76
2022/12/16 02:03:24;;;;;;;;;;;;;;;;;;1038634;28;19909;-76
2022/12/16 02:03:55;;;;;;;;;;;;;;;;;;1039827;28;19916;-77
2022/12/16 02:04:26;;;;;;;;;;;;;;;;;;1035326;28;20377;-76
2022/12/16 02:05:46;;;;;;;;;;;;;;;;;;1035606;28;20419;-76
2022/12/16 02:06:17;;;;;;;;;;;;;;;;;;1036111;28;19909;-77
2022/12/16 02:06:47;;;;;;;;;;;;;;;;;;1032674;28;20345;-75
2022/12/16 02:07:18;;;;;;;;;;;;;;;;;;1031839;28;19914;-75
2022/12/16 02:07:49;;;;;;;;;;;;;;;;;;1035251;28;20632;-79
2022/12/16 02:08:21;;;;;;;;;;;;;;;;;;1035895;28;19932;-78
2022/12/16 02:08:52;;;;;;;;;;;;;;;;;;1035497;28;19960;-77
2022/12/16 02:09:23;;;;;;;;;;;;;;;;;;1035046;28;20004;-77
2022/12/16 02:09:54;;;;;;;;;;;;;;;;;;1032081;28;19906;-78
2022/12/16 02:10:24;;;;;;;;;;;;;;;;;;1031428;28;19910;-78
2022/12/16 02:10:55;;;;;;;;;;;;;;;;;;1033561;28;19980;-77
2022/12/16 02:11:26;;;;;;;;;;;;;;;;;;1031584;28;19916;-77
2022/12/16 02:11:57;;;;;;;;;;;;;;;;;;1035331;28;19910;-76
2022/12/16 02:12:28;;;;;;;;;;;;;;;;;;1036331;28;20085;-77
2022/12/16 02:12:59;;;;;;;;;;;;;;;;;;1035179;28;19906;-77
2022/12/16 02:13:30;;;;;;;;;;;;;;;;;;1031323;28;19917;-77
2022/12/16 02:14:01;;;;;;;;;;;;;;;;;;1031278;28;19910;-77
2022/12/16 02:14:32;;;;;;;;;;;;;;;;;;1035488;28;19909;-77
2022/12/16 02:15:03;;;;;;;;;;;;;;;;;;1032011;28;20345;-79
2022/12/16 02:15:34;;;;;;;;;;;;;;;;;;1035532;28;20000;-75
2022/12/16 02:16:05;;;;;;;;;;;;;;;;;;1035583;28;19909;-76
2022/12/16 02:16:36;;;;;;;;;;;;;;;;;;1039676;28;19999;-76
2022/12/16 02:17:06;;;;;;;;;;;;;;;;;;1034769;28;19948;-77
2022/12/16 02:17:37;;;;;;;;;;;;;;;;;;1036465;28;20260;-77
2022/12/16 02:18:08;;;;;;;;;;;;;;;;;;1034962;28;19913;-77
2022/12/16 02:18:39;;;;;;;;;;;;;;;;;;1035798;28;19932;-77
2022/12/16 02:19:10;;;;;;;;;;;;;;;;;;1039505;28;19944;-77
2022/12/16 02:19:41;;;;;;;;;;;;;;;;;;1039867;28;19996;-76
2022/12/16 02:20:12;;;;;;;;;;;;;;;;;;1036157;28;19910;-77
2022/12/16 02:20:43;;;;;;;;;;;;;;;;;;1031611;28;19941;-77
2022/12/16 02:21:14;;;;;;;;;;;;;;;;;;1030906;28;19990;-77
2022/12/16 02:21:45;;;;;;;;;;;;;;;;;;1031994;28;19996;-76
2022/12/16 02:22:16;;;;;;;;;;;;;;;;;;1031355;28;19910;-77
2022/12/16 02:22:47;;;;;;;;;;;;;;;;;;1032346;28;20020;-76
2022/12/16 02:23:18;;;;;;;;;;;;;;;;;;1030710;28;19980;-76
2022/12/16 02:23:49;;;;;;;;;;;;;;;;;;1031659;28;19910;-76
2022/12/16 02:24:20;;;;;;;;;;;;;;;;;;1031310;28;19937;-76
2022/12/16 02:24:51;;;;;;;;;;;;;;;;;;1035466;28;19987;-76
2022/12/16 02:25:22;;;;;;;;;;;;;;;;;;1036218;28;19894;-77
2022/12/16 02:25:53;;;;;;;;;;;;;;;;;;1035486;28;19906;-77
2022/12/16 02:26:24;;;;;;;;;;;;;;;;;;1034934;28;20671;-77
2022/12/16 02:26:55;;;;;;;;;;;;;;;;;;1031235;28;20008;-77
2022/12/16 02:27:25;;;;;;;;;;;;;;;;;;1027331;28;19910;-77
2022/12/16 02:27:56;;;;;;;;;;;;;;;;;;1028624;28;19966;-77
2022/12/16 02:28:27;;;;;;;;;;;;;;;;;;1027309;28;19907;-76
2022/12/16 02:28:59;;;;;;;;;;;;;;;;;;1027704;28;20429;-77
2022/12/16 02:29:30;;;;;;;;;;;;;;;;;;1031367;28;20000;-77
2022/12/16 02:30:01;;;;;;;;;;;;;;;;;;1035793;28;19932;-77
2022/12/16 02:30:32;;;;;;;;;;;;;;;;;;1036059;28;19909;-77
2022/12/16 02:31:03;;;;;;;;;;;;;;;;;;1035268;28;19916;-77
2022/12/16 02:31:33;;;;;;;;;;;;;;;;;;1035140;28;19917;-76
2022/12/16 02:32:04;;;;;;;;;;;;;;;;;;1035785;28;19920;-77
2022/12/16 02:32:35;;;;;;;;;;;;;;;;;;1039537;28;19910;-77
2022/12/16 02:33:06;;;;;;;;;;;;;;;;;;1036118;28;19910;-76
2022/12/16 02:33:37;;;;;;;;;;;;;;;;;;1035198;28;20004;-77
2022/12/16 02:34:08;;;;;;;;;;;;;;;;;;1035325;28;19964;-76
2022/12/16 02:34:39;;;;;;;;;;;;;;;;;;1035441;28;19916;-77
2022/12/16 02:35:10;;;;;;;;;;;;;;;;;;1035223;28;20720;-77
2022/12/16 02:35:40;;;;;;;;;;;;;;;;;;1036832;28;19916;-78
2022/12/16 02:36:11;;;;;;;;;;;;;;;;;;1035546;28;19906;-77
2022/12/16 02:36:42;;;;;;;;;;;;;;;;;;1035020;28;19905;-77
2022/12/16 02:37:14;;;;;;;;;;;;;;;;;;1035437;28;19944;-78
2022/12/16 02:37:45;;;;;;;;;;;;;;;;;;1035171;28;19933;-78
2022/12/16 02:38:15;;;;;;;;;;;;;;;;;;1035018;28;20541;-77
2022/12/16 02:38:46;;;;;;;;;;;;;;;;;;1033065;28;19913;-77
2022/12/16 02:39:17;;;;;;;;;;;;;;;;;;1039218;28;19971;-78
2022/12/16 02:39:48;;;;;;;;;;;;;;;;;;1039609;28;19948;-78
2022/12/16 02:40:19;;;;;;;;;;;;;;;;;;1030860;28;19917;-77
2022/12/16 02:40:50;;;;;;;;;;;;;;;;;;1028356;28;19924;-76
2022/12/16 02:41:21;;;;;;;;;;;;;;;;;;1023391;28;19915;-75
2022/12/16 02:41:52;;;;;;;;;;;;;;;;;;1026341;28;20144;-76
2022/12/16 02:42:22;;;;;;;;;;;;;;;;;;1031041;28;19917;-76
2022/12/16 02:42:53;;;;;;;;;;;;;;;;;;1031867;28;19906;-75
2022/12/16 02:43:24;;;;;;;;;;;;;;;;;;1036218;28;20004;-76
2022/12/16 02:43:55;;;;;;;;;;;;;;;;;;1035402;28;19944;-76
2022/12/16 02:44:26;;;;;;;;;;;;;;;;;;1030894;28;20530;-76
2022/12/16 02:44:57;;;;;;;;;;;;;;;;;;1031443;28;19945;-76
2022/12/16 02:45:28;;;;;;;;;;;;;;;;;;1031824;28;19910;-76
2022/12/16 02:45:59;;;;;;;;;;;;;;;;;;1032576;28;19909;-78
2022/12/16 02:46:31;;;;;;;;;;;;;;;;;;1031090;28;19909;-77
2022/12/16 02:47:02;;;;;;;;;;;;;;;;;;1034683;28;19916;-77
2022/12/16 02:47:33;;;;;;;;;;;;;;;;;;1035111;28;20004;-76
2022/12/16 02:48:04;;;;;;;;;;;;;;;;;;1031568;28;19910;-75
2022/12/16 02:48:35;;;;;;;;;;;;;;;;;;1031837;28;19997;-76
2022/12/16 02:49:06;;;;;;;;;;;;;;;;;;1031304;28;19914;-77
2022/12/16 02:49:37;;;;;;;;;;;;;;;;;;1031177;28;19946;-76
2022/12/16 02:50:08;;;;;;;;;;;;;;;;;;1035439;28;19909;-75
2022/12/16 02:50:39;;;;;;;;;;;;;;;;;;1031311;28;20061;-77
2022/12/16 02:51:10;;;;;;;;;;;;;;;;;;1032450;28;19937;-76
2022/12/16 02:51:40;;;;;;;;;;;;;;;;;;1031147;28;19996;-76
2022/12/16 02:52:11;;;;;;;;;;;;;;;;;;1035336;28;19974;-76
2022/12/16 02:52:42;;;;;;;;;;;;;;;;;;1039351;28;19909;-77
2022/12/16 02:53:13;;;;;;;;;;;;;;;;;;1039387;28;20020;-76
2022/12/16 02:53:44;;;;;;;;;;;;;;;;;;1039936;28;19910;-78
2022/12/16 02:54:15;;;;;;;;;;;;;;;;;;1039762;28;20582;-77
2022/12/16 02:54:46;;;;;;;;;;;;;;;;;;1039243;28;20003;-78
2022/12/16 02:55:17;;;;;;;;;;;;;;;;;;1035166;28;19915;-78
2022/12/16 02:55:48;;;;;;;;;;;;;;;;;;1035025;28;20361;-77
2022/12/16 02:56:19;;;;;;;;;;;;;;;;;;1032308;28;19910;-76
2022/12/16 02:56:49;;;;;;;;;;;;;;;;;;1031097;28;20670;-78
2022/12/16 02:57:20;;;;;;;;;;;;;;;;;;1034878;28;19921;-76
2022/12/16 02:57:51;;;;;;;;;;;;;;;;;;1030871;28;19917;-77
2022/12/16 02:58:22;;;;;;;;;;;;;;;;;;1027805;28;19965;-77
2022/12/16 02:58:53;;;;;;;;;;;;;;;;;;1032960;28;20000;-76
2022/12/16 02:59:24;;;;;;;;;;;;;;;;;;1032226;28;19972;-76
2022/12/16 02:59:55;;;;;;;;;;;;;;;;;;1032118;28;19940;-77
2022/12/16 03:00:26;;;;;;;;;;;;;;;;;;1036072;28;19917;-77
2022/12/16 03:00:56;;;;;;;;;;;;;;;;;;1031903;28;20028;-77
2022/12/16 03:01:27;;;;;;;;;;;;;;;;;;1032819;28;19910;-76
2022/12/16 03:01:58;;;;;;;;;;;;;;;;;;1032371;28;20369;-76
2022/12/16 03:02:32;;;;;;;;;;;;;;;;;;1032098;28;19933;-78
2022/12/16 03:03:03;;;;;;;;;;;;;;;;;;1031744;28;19945;-79
2022/12/16 03:03:34;;;;;;;;;;;;;;;;;;1028813;28;19914;-76
2022/12/16 03:04:05;;;;;;;;;;;;;;;;;;1028989;28;20306;-76
2022/12/16 03:04:36;;;;;;;;;;;;;;;;;;1028592;28;20651;-76
2022/12/16 03:05:06;;;;;;;;;;;;;;;;;;1032227;28;19913;-77
2022/12/16 03:05:39;;;;;;;;;;;;;;;;;;1036294;28;19917;-76
2022/12/16 03:06:10;;;;;;;;;;;;;;;;;;1035604;28;20377;-78
2022/12/16 03:06:41;;;;;;;;;;;;;;;;;;1037102;28;19914;-76
2022/12/16 03:07:12;;;;;;;;;;;;;;;;;;1032044;28;20064;-76
2022/12/16 03:07:43;;;;;;;;;;;;;;;;;;1032261;28;20310;-76
2022/12/16 03:08:14;;;;;;;;;;;;;;;;;;1031813;28;19953;-76
2022/12/16 03:08:45;;;;;;;;;;;;;;;;;;1032067;28;20352;-76
2022/12/16 03:09:16;;;;;;;;;;;;;;;;;;1033193;28;19913;-76
2022/12/16 03:09:47;;;;;;;;;;;;;;;;;;1032244;28;20033;-76
2022/12/16 03:10:17;;;;;;;;;;;;;;;;;;1036041;28;20760;-76
2022/12/16 03:10:48;;;;;;;;;;;;;;;;;;1035884;28;19919;-76
2022/12/16 03:11:19;;;;;;;;;;;;;;;;;;1032326;28;19914;-76
2022/12/16 03:11:50;;;;;;;;;;;;;;;;;;1036444;28;19960;-76
2022/12/16 03:12:21;;;;;;;;;;;;;;;;;;1032234;28;19913;-77
2022/12/16 03:12:52;;;;;;;;;;;;;;;;;;1031847;28;19914;-77
2022/12/16 03:13:23;;;;;;;;;;;;;;;;;;1031384;28;20529;-77
2022/12/16 03:13:53;;;;;;;;;;;;;;;;;;1031827;28;19963;-76
2022/12/16 03:14:24;;;;;;;;;;;;;;;;;;1032100;28;19913;-77
2022/12/16 03:14:55;;;;;;;;;;;;;;;;;;1029646;28;20487;-77
2022/12/16 03:15:26;;;;;;;;;;;;;;;;;;1036520;28;19917;-77
2022/12/16 03:15:57;;;;;;;;;;;;;;;;;;1035677;28;20493;-77
2022/12/16 03:16:28;;;;;;;;;;;;;;;;;;1036062;28;19956;-76
2022/12/16 03:16:59;;;;;;;;;;;;;;;;;;1036194;28;19945;-79
2022/12/16 03:17:31;;;;;;;;;;;;;;;;;;1032077;28;19992;-77
2022/12/16 03:18:02;;;;;;;;;;;;;;;;;;1031322;28;19913;-79
2022/12/16 03:18:32;;;;;;;;;;;;;;;;;;1024264;28;19915;-77
2022/12/16 03:19:03;;;;;;;;;;;;;;;;;;1028203;28;19914;-78
2022/12/16 03:19:34;;;;;;;;;;;;;;;;;;1032505;28;20012;-79
2022/12/16 03:20:05;;;;;;;;;;;;;;;;;;1035930;28;19914;-77
2022/12/16 03:20:36;;;;;;;;;;;;;;;;;;1036224;28;19917;-76
2022/12/16 03:21:07;;;;;;;;;;;;;;;;;;1035952;28;20613;-76
2022/12/16 03:21:38;;;;;;;;;;;;;;;;;;1036092;28;19913;-76
2022/12/16 03:22:09;;;;;;;;;;;;;;;;;;1036108;28;20354;-76
2022/12/16 03:22:40;;;;;;;;;;;;;;;;;;1032382;28;20328;-76
2022/12/16 03:23:11;;;;;;;;;;;;;;;;;;1031180;28;19992;-76
2022/12/16 03:23:41;;;;;;;;;;;;;;;;;;1032298;28;19910;-78
2022/12/16 03:24:12;;;;;;;;;;;;;;;;;;1036108;28;19910;-76
2022/12/16 03:24:43;;;;;;;;;;;;;;;;;;1036094;28;19912;-77
2022/12/16 03:25:14;;;;;;;;;;;;;;;;;;1032250;28;20443;-76
2022/12/16 03:25:45;;;;;;;;;;;;;;;;;;1032000;28;19941;-76
2022/12/16 03:26:16;;;;;;;;;;;;;;;;;;1031696;28;19929;-76
2022/12/16 03:26:47;;;;;;;;;;;;;;;;;;1033615;28;19909;-78
2022/12/16 03:27:18;;;;;;;;;;;;;;;;;;1035929;28;19964;-77
2022/12/16 03:27:48;;;;;;;;;;;;;;;;;;1036842;28;20498;-76
2022/12/16 03:28:19;;;;;;;;;;;;;;;;;;1032678;28;19941;-76
2022/12/16 03:28:50;;;;;;;;;;;;;;;;;;1033696;28;20376;-76
2022/12/16 03:29:21;;;;;;;;;;;;;;;;;;1027813;28;19915;-76
2022/12/16 03:29:52;;;;;;;;;;;;;;;;;;1029838;28;20451;-77
2022/12/16 03:30:23;;;;;;;;;;;;;;;;;;1028449;28;20641;-77
2022/12/16 03:30:54;;;;;;;;;;;;;;;;;;1027883;28;19917;-76
2022/12/16 03:31:25;;;;;;;;;;;;;;;;;;1028500;28;19997;-78
2022/12/16 03:31:56;;;;;;;;;;;;;;;;;;1035906;28;19996;-77
2022/12/16 03:32:27;;;;;;;;;;;;;;;;;;1031918;28;19965;-77